Time;durP1;ratioP1;P1;durP2;ratioP2;P2;SDS_P1;SDS_P2;PMS_P1;PMS_P2;Temp;Humidity;BMP_temperature;BMP_pressure;BME280_temperature;BME280_humidity;BME280_pressure;Samples;Min_cycle;Max_cycle;Signal;HPM_P1;HPM_P2
2021/12/10 00:01:32;;;;;;;0.30;0.20;;;1.30;99.90;;;;;;5114553;28;20522;-86
2021/12/10 00:04:01;;;;;;;0.30;0.30;;;1.30;99.90;;;;;;5114458;28;20427;-86
2021/12/10 00:06:31;;;;;;;0.30;0.20;;;1.20;99.90;;;;;;5114462;28;20451;-86
2021/12/10 00:09:01;;;;;;;0.30;0.20;;;1.20;99.90;;;;;;5114416;28;20489;-86
2021/12/10 00:11:36;;;;;;;0.30;0.20;;;1.20;99.90;;;;;;5114421;28;20467;-88
2021/12/10 00:14:03;;;;;;;0.33;0.33;;;1.20;99.90;;;;;;5114460;28;20430;-86
2021/12/10 00:16:30;;;;;;;0.30;0.30;;;1.10;99.90;;;;;;5114754;28;20455;-85
2021/12/10 00:19:10;;;;;;;0.30;0.20;;;1.10;99.90;;;;;;5114555;28;20516;-86
2021/12/10 00:21:38;;;;;;;0.30;0.30;;;1.10;99.90;;;;;;5114179;28;21031;-86
2021/12/10 00:24:05;;;;;;;0.30;0.30;;;1.10;99.90;;;;;;5114315;28;20451;-86
2021/12/10 00:26:32;;;;;;;0.30;0.30;;;1.10;99.90;;;;;;5114308;28;20439;-86
2021/12/10 00:29:03;;;;;;;0.30;0.30;;;1.00;99.90;;;;;;5114380;28;20823;-85
2021/12/10 00:31:46;;;;;;;0.30;0.20;;;1.00;99.90;;;;;;5113804;28;20516;-85
2021/12/10 00:34:16;;;;;;;0.30;0.20;;;1.00;99.90;;;;;;5114235;28;20438;-85
2021/12/10 00:36:46;;;;;;;0.30;0.30;;;0.90;99.90;;;;;;5113855;28;20454;-78
2021/12/10 00:39:18;;;;;;;0.30;0.30;;;0.90;99.90;;;;;;5113909;28;20466;-78
2021/12/10 00:41:45;;;;;;;0.30;0.30;;;0.90;99.90;;;;;;5113574;27;20970;-78
2021/12/10 00:44:13;;;;;;;0.30;0.20;;;0.90;99.90;;;;;;5113718;28;20414;-78
2021/12/10 00:46:40;;;;;;;0.30;0.30;;;0.90;99.90;;;;;;5113879;28;20760;-78
2021/12/10 00:49:08;;;;;;;0.30;0.20;;;0.80;99.90;;;;;;5113585;28;20431;-78
2021/12/10 00:51:35;;;;;;;0.30;0.30;;;0.80;99.90;;;;;;5114779;28;20479;-78
2021/12/10 00:54:04;;;;;;;0.30;0.30;;;0.70;99.90;;;;;;5118062;28;20969;-78
2021/12/10 00:56:31;;;;;;;0.30;0.30;;;0.70;99.90;;;;;;5118007;28;20435;-78
2021/12/10 00:58:57;;;;;;;0.50;0.50;;;0.70;99.90;;;;;;5118032;28;20445;-75
2021/12/10 01:01:31;;;;;;;0.30;0.30;;;0.70;99.90;;;;;;5117870;28;20462;-75
2021/12/10 01:04:02;;;;;;;0.30;0.30;;;0.70;99.90;;;;;;5117938;28;20457;-75
2021/12/10 01:06:29;;;;;;;0.30;0.30;;;0.60;99.90;;;;;;5117468;28;20482;-76
2021/12/10 01:08:59;;;;;;;2.10;1.50;;;0.60;99.90;;;;;;5117720;28;20479;-76
2021/12/10 01:11:30;;;;;;;0.30;0.30;;;0.60;99.90;;;;;;5117832;28;20465;-75
2021/12/10 01:14:08;;;;;;;0.30;0.30;;;0.60;99.90;;;;;;5117757;28;20433;-76
2021/12/10 01:25:05;;;;;;;0.30;0.30;;;0.50;99.90;;;;;;5117519;28;20458;-76
2021/12/10 01:27:35;;;;;;;0.30;0.30;;;0.50;99.90;;;;;;5117481;28;20405;-76
2021/12/10 01:30:08;;;;;;;0.30;0.30;;;0.50;99.90;;;;;;5117640;28;20462;-76
2021/12/10 01:32:39;;;;;;;0.30;0.20;;;0.50;99.90;;;;;;5117417;28;20427;-76
2021/12/10 01:35:10;;;;;;;0.30;0.30;;;0.50;99.90;;;;;;5117237;28;20790;-76
2021/12/10 01:37:37;;;;;;;0.30;0.20;;;0.40;99.90;;;;;;5117322;28;20437;-76
2021/12/10 01:40:07;;;;;;;0.30;0.30;;;0.40;99.90;;;;;;5116865;28;20462;-76
2021/12/10 01:42:41;;;;;;;0.30;0.20;;;0.40;99.90;;;;;;5117563;28;20795;-76
2021/12/10 01:45:18;;;;;;;0.30;0.30;;;0.30;99.90;;;;;;5117138;28;20553;-76
2021/12/10 01:47:49;;;;;;;0.30;0.30;;;0.30;99.90;;;;;;5117094;28;20960;-76
2021/12/10 01:50:17;;;;;;;0.30;0.23;;;0.30;99.90;;;;;;5116699;27;20995;-76
2021/12/10 01:52:43;;;;;;;0.40;0.37;;;0.30;99.90;;;;;;5116951;28;20470;-76
2021/12/10 01:55:11;;;;;;;0.30;0.30;;;0.30;99.90;;;;;;5116912;28;20465;-76
2021/12/10 01:57:39;;;;;;;1.57;0.50;;;0.20;99.90;;;;;;5116578;28;20426;-76
2021/12/10 02:00:09;;;;;;;0.30;0.30;;;0.20;99.90;;;;;;5116452;28;20467;-76
2021/12/10 02:02:38;;;;;;;0.37;0.37;;;0.20;99.90;;;;;;5116991;28;20438;-76
2021/12/10 02:05:08;;;;;;;0.30;0.30;;;0.20;99.90;;;;;;5116663;27;20486;-76
2021/12/10 02:07:35;;;;;;;0.30;0.30;;;0.20;99.90;;;;;;5116797;28;20423;-75
2021/12/10 02:10:04;;;;;;;0.30;0.30;;;0.20;99.90;;;;;;5116210;28;20467;-75
2021/12/10 02:12:31;;;;;;;0.30;0.30;;;0.10;99.90;;;;;;5116305;28;20443;-75
2021/12/10 02:15:01;;;;;;;0.30;0.30;;;0.20;99.90;;;;;;5116562;28;20450;-75
2021/12/10 02:17:30;;;;;;;0.30;0.20;;;0.20;99.90;;;;;;5116597;27;20431;-76
2021/12/10 02:19:57;;;;;;;0.30;0.20;;;0.20;99.90;;;;;;5116391;28;20804;-75
2021/12/10 02:22:25;;;;;;;0.30;0.30;;;0.20;99.90;;;;;;5116388;28;20447;-76
2021/12/10 02:24:52;;;;;;;0.30;0.30;;;0.20;99.90;;;;;;5116416;27;20542;-75
2021/12/10 02:27:19;;;;;;;0.30;0.20;;;0.20;99.90;;;;;;5116319;28;20451;-75
2021/12/10 02:29:46;;;;;;;0.30;0.30;;;0.20;99.90;;;;;;5116184;28;20449;-75
2021/12/10 02:32:12;;;;;;;0.40;0.40;;;0.30;99.90;;;;;;5116229;28;20454;-75
2021/12/10 02:34:41;;;;;;;0.30;0.30;;;0.30;99.90;;;;;;5116179;28;20447;-75
2021/12/10 02:37:08;;;;;;;0.30;0.30;;;0.20;99.90;;;;;;5115795;28;20455;-75
2021/12/10 02:39:36;;;;;;;0.30;0.30;;;0.10;99.90;;;;;;5116091;28;20454;-76
2021/12/10 02:42:04;;;;;;;0.30;0.30;;;0.10;99.90;;;;;;5115927;28;20455;-75
2021/12/10 02:44:33;;;;;;;0.30;0.30;;;0.10;99.90;;;;;;5115651;28;20988;-75
2021/12/10 02:47:01;;;;;;;0.30;0.20;;;0.10;99.90;;;;;;5115880;28;20479;-75
2021/12/10 02:49:29;;;;;;;0.30;0.30;;;0.10;99.90;;;;;;5115901;28;20450;-76
2021/12/10 02:51:56;;;;;;;0.30;0.20;;;0.10;99.90;;;;;;5115461;28;20459;-75
2021/12/10 02:54:33;;;;;;;0.30;0.20;;;0.10;99.90;;;;;;5115752;28;20541;-75
2021/12/10 02:57:04;;;;;;;0.30;0.30;;;0.10;99.90;;;;;;5116008;28;20480;-75
2021/12/10 02:59:31;;;;;;;0.30;0.20;;;0.10;99.90;;;;;;5115731;28;20466;-76
2021/12/10 03:01:59;;;;;;;0.30;0.20;;;0.10;99.90;;;;;;5115560;28;20470;-76
2021/12/10 03:04:27;;;;;;;0.30;0.30;;;0.10;99.90;;;;;;5114265;28;20508;-76
2021/12/10 03:06:56;;;;;;;0.30;0.30;;;0.10;99.90;;;;;;5115199;28;20837;-76
2021/12/10 03:09:24;;;;;;;0.30;0.30;;;0.00;99.90;;;;;;5115132;28;20494;-75
2021/12/10 03:11:55;;;;;;;0.30;0.30;;;0.10;99.90;;;;;;5115383;27;20472;-75
2021/12/10 03:14:27;;;;;;;0.30;0.30;;;0.00;99.90;;;;;;5114600;28;20903;-76
2021/12/10 03:16:56;;;;;;;0.30;0.30;;;0.00;99.90;;;;;;5115066;28;20938;-76
2021/12/10 03:19:23;;;;;;;0.30;0.30;;;0.00;99.90;;;;;;5115281;28;20447;-75
2021/12/10 03:21:51;;;;;;;0.30;0.20;;;0.00;99.90;;;;;;5115181;28;20467;-76
2021/12/10 03:24:22;;;;;;;0.30;0.30;;;0.00;99.90;;;;;;5114868;27;20808;-76
2021/12/10 03:26:51;;;;;;;0.30;0.30;;;0.00;99.90;;;;;;5115111;27;20904;-76
2021/12/10 03:29:18;;;;;;;0.30;0.30;;;0.00;99.90;;;;;;5115073;28;20451;-76
2021/12/10 03:31:47;;;;;;;0.30;0.30;;;0.00;99.90;;;;;;5114661;28;20887;-75
2021/12/10 03:34:14;;;;;;;0.30;0.30;;;-0.10;99.90;;;;;;5115018;28;20426;-75
2021/12/10 03:36:45;;;;;;;0.37;0.37;;;-0.10;99.90;;;;;;5114653;28;20410;-76
2021/12/10 03:39:13;;;;;;;0.30;0.30;;;-0.10;99.90;;;;;;5115619;28;20528;-76
2021/12/10 03:41:40;;;;;;;0.30;0.20;;;-0.20;99.90;;;;;;5114805;28;20438;-76
2021/12/10 03:44:07;;;;;;;0.30;0.27;;;-0.10;99.90;;;;;;5114820;28;20451;-76
2021/12/10 03:46:34;;;;;;;0.30;0.20;;;-0.10;99.90;;;;;;5114693;28;20485;-76
2021/12/10 03:49:03;;;;;;;0.30;0.30;;;-0.10;99.90;;;;;;5114701;28;20458;-76
2021/12/10 03:51:32;;;;;;;0.30;0.20;;;-0.20;99.90;;;;;;5114330;28;20496;-77
2021/12/10 03:54:00;;;;;;;0.30;0.30;;;-0.20;99.90;;;;;;5114812;28;20448;-76
2021/12/10 03:56:29;;;;;;;0.30;0.30;;;-0.30;99.90;;;;;;5114599;28;20436;-76
2021/12/10 03:58:59;;;;;;;0.30;0.30;;;-0.40;99.90;;;;;;5114229;28;20453;-76
2021/12/10 04:01:33;;;;;;;0.30;0.30;;;-0.40;99.90;;;;;;5114454;28;20471;-76
2021/12/10 04:04:05;;;;;;;0.30;0.20;;;-0.40;99.90;;;;;;5114540;28;20431;-77
2021/12/10 04:06:31;;;;;;;0.30;0.30;;;-0.50;99.90;;;;;;5114449;28;20489;-76
2021/12/10 04:08:59;;;;;;;0.30;0.30;;;-0.50;99.90;;;;;;5114209;28;20479;-76
2021/12/10 04:11:28;;;;;;;0.30;0.30;;;-0.50;99.90;;;;;;5114245;28;20467;-76
2021/12/10 04:13:56;;;;;;;0.30;0.30;;;-0.60;99.90;;;;;;5114270;28;20451;-76
2021/12/10 04:16:26;;;;;;;0.30;0.20;;;-0.60;99.90;;;;;;5113936;28;20942;-75
2021/12/10 04:18:57;;;;;;;0.67;0.67;;;-0.50;99.90;;;;;;5114686;28;20567;-75
2021/12/10 04:21:26;;;;;;;0.77;0.77;;;-0.60;99.90;;;;;;5114150;28;20478;-75
2021/12/10 04:23:53;;;;;;;0.30;0.30;;;-0.50;99.90;;;;;;5114168;28;20447;-75
2021/12/10 04:26:24;;;;;;;0.30;0.20;;;-0.50;99.90;;;;;;5113195;28;20494;-75
2021/12/10 04:28:52;;;;;;;0.30;0.30;;;-0.60;99.90;;;;;;5114137;28;20435;-75
2021/12/10 04:31:20;;;;;;;0.30;0.30;;;-0.60;99.90;;;;;;5113981;28;20437;-75
2021/12/10 04:33:47;;;;;;;0.30;0.30;;;-0.50;99.90;;;;;;5114014;28;20429;-75
2021/12/10 04:36:14;;;;;;;0.30;0.30;;;-0.50;99.90;;;;;;5114170;28;20454;-75
2021/12/10 04:38:42;;;;;;;0.33;0.27;;;-0.50;99.90;;;;;;5113980;28;20443;-75
2021/12/10 04:41:12;;;;;;;0.43;0.43;;;-0.50;99.90;;;;;;5113664;28;21039;-75
2021/12/10 04:43:42;;;;;;;0.30;0.20;;;-0.60;99.90;;;;;;5113909;28;20435;-75
2021/12/10 04:46:09;;;;;;;0.30;0.30;;;-0.60;99.90;;;;;;5113524;28;20859;-75
2021/12/10 04:48:53;;;;;;;0.30;0.30;;;-0.60;99.90;;;;;;5113841;28;20451;-76
2021/12/10 04:51:25;;;;;;;0.30;0.30;;;-0.60;99.90;;;;;;5113801;28;20471;-75
2021/12/10 04:53:55;;;;;;;0.30;0.30;;;-0.60;99.90;;;;;;5113886;28;20423;-75
2021/12/10 04:56:22;;;;;;;0.30;0.23;;;-0.70;99.90;;;;;;5114009;28;20442;-75
2021/12/10 04:58:50;;;;;;;0.30;0.30;;;-0.60;99.90;;;;;;5113796;28;20446;-75
2021/12/10 05:01:17;;;;;;;1.03;1.03;;;-0.60;99.90;;;;;;5113637;28;20466;-76
2021/12/10 05:03:44;;;;;;;0.30;0.20;;;-0.50;99.90;;;;;;5113765;28;20446;-76
2021/12/10 05:06:11;;;;;;;0.30;0.30;;;-0.50;99.90;;;;;;5113297;28;20858;-76
2021/12/10 05:08:39;;;;;;;0.30;0.20;;;-0.40;99.90;;;;;;5113172;28;20823;-76
2021/12/10 05:11:10;;;;;;;0.30;0.30;;;-0.40;99.90;;;;;;5113565;28;20467;-76
2021/12/10 05:13:39;;;;;;;0.30;0.30;;;-0.50;99.90;;;;;;5113670;28;20430;-76
2021/12/10 05:16:06;;;;;;;0.30;0.30;;;-0.50;99.90;;;;;;5113355;28;20439;-75
2021/12/10 05:18:37;;;;;;;0.30;0.30;;;-0.60;99.90;;;;;;5113826;28;20447;-76
2021/12/10 05:21:05;;;;;;;0.30;0.30;;;-0.60;99.90;;;;;;5113510;28;20475;-76
2021/12/10 05:23:34;;;;;;;0.30;0.20;;;-0.70;99.90;;;;;;5113535;28;20447;-75
2021/12/10 05:26:01;;;;;;;0.30;0.20;;;-0.70;99.90;;;;;;5113456;28;20489;-75
2021/12/10 05:28:30;;;;;;;0.30;0.20;;;-0.70;99.90;;;;;;5113511;28;20439;-76
2021/12/10 05:30:57;;;;;;;0.40;0.40;;;-0.60;99.90;;;;;;5113394;28;20829;-76
2021/12/10 05:33:24;;;;;;;0.30;0.30;;;-0.60;99.90;;;;;;5113410;28;20429;-76
2021/12/10 05:35:52;;;;;;;0.30;0.20;;;-0.60;99.90;;;;;;5113109;28;20447;-76
2021/12/10 05:38:20;;;;;;;0.30;0.20;;;-0.60;99.90;;;;;;5115502;28;20447;-76
2021/12/10 05:40:49;;;;;;;0.30;0.30;;;-0.60;99.90;;;;;;5116845;28;20835;-77
2021/12/10 05:43:16;;;;;;;0.30;0.30;;;-0.60;99.90;;;;;;5117209;28;20420;-77
2021/12/10 05:45:44;;;;;;;0.30;0.20;;;-0.60;99.90;;;;;;5117109;28;20462;-77
2021/12/10 05:48:11;;;;;;;0.33;0.33;;;-0.60;99.90;;;;;;5117107;28;20447;-76
2021/12/10 05:50:38;;;;;;;0.30;0.20;;;-0.60;99.90;;;;;;5116950;28;20445;-76
2021/12/10 05:53:06;;;;;;;0.30;0.30;;;-0.70;99.90;;;;;;5116673;28;20450;-76
2021/12/10 05:55:34;;;;;;;0.30;0.30;;;-0.70;99.90;;;;;;5116648;28;20969;-76
2021/12/10 05:58:01;;;;;;;0.30;0.30;;;-0.80;99.90;;;;;;5116911;28;20443;-76
2021/12/10 06:00:32;;;;;;;0.30;0.30;;;-0.80;99.90;;;;;;5116793;28;20462;-77
2021/12/10 06:03:01;;;;;;;0.30;0.27;;;-0.70;99.90;;;;;;5116862;27;20447;-77
2021/12/10 06:05:28;;;;;;;0.30;0.20;;;-0.70;99.90;;;;;;5116747;28;20516;-77
2021/12/10 06:07:55;;;;;;;0.30;0.30;;;-0.70;99.90;;;;;;5116618;28;20501;-77
2021/12/10 06:10:23;;;;;;;0.30;0.30;;;-0.70;99.90;;;;;;5116374;28;20486;-77
2021/12/10 06:12:51;;;;;;;0.30;0.30;;;-0.70;99.90;;;;;;5116317;28;20443;-77
2021/12/10 06:15:21;;;;;;;0.30;0.30;;;-0.60;99.90;;;;;;5116998;28;20443;-77
2021/12/10 06:17:48;;;;;;;0.30;0.30;;;-0.60;99.90;;;;;;5116495;28;20450;-77
2021/12/10 06:20:20;;;;;;;0.67;0.67;;;-0.60;99.90;;;;;;5116365;27;20819;-77
2021/12/10 06:22:48;;;;;;;0.30;0.30;;;-0.60;99.90;;;;;;5116469;28;20475;-77
2021/12/10 06:25:15;;;;;;;0.30;0.30;;;-0.60;99.90;;;;;;5116359;28;20425;-77
2021/12/10 06:27:44;;;;;;;0.30;0.30;;;-0.60;99.90;;;;;;5116248;28;20453;-77
2021/12/10 06:30:13;;;;;;;0.30;0.30;;;-0.50;99.90;;;;;;5116197;28;20536;-77
2021/12/10 06:32:41;;;;;;;0.30;0.30;;;-0.60;99.90;;;;;;5115849;28;20451;-77
2021/12/10 06:35:09;;;;;;;0.30;0.30;;;-0.70;99.90;;;;;;5115897;27;20972;-77
2021/12/10 06:37:37;;;;;;;0.30;0.30;;;-0.80;99.90;;;;;;5116109;28;20450;-77
2021/12/10 06:40:07;;;;;;;0.30;0.27;;;-0.80;99.90;;;;;;5116052;28;20421;-77
2021/12/10 06:42:33;;;;;;;0.30;0.30;;;-0.70;99.90;;;;;;5116027;28;20443;-77
2021/12/10 06:45:00;;;;;;;0.40;0.40;;;-0.60;99.90;;;;;;5116014;28;20446;-78
2021/12/10 06:47:27;;;;;;;0.30;0.30;;;-0.60;99.90;;;;;;5115863;28;20454;-77
2021/12/10 06:49:54;;;;;;;0.30;0.30;;;-0.70;99.90;;;;;;5114886;28;20450;-77
2021/12/10 06:52:21;;;;;;;0.60;0.60;;;-0.70;99.90;;;;;;5115823;27;20458;-77
2021/12/10 06:54:49;;;;;;;0.30;0.30;;;-0.60;99.90;;;;;;5115797;28;20808;-77
2021/12/10 06:57:15;;;;;;;0.63;0.63;;;-0.60;99.90;;;;;;5115703;28;20424;-77
2021/12/10 06:59:42;;;;;;;0.40;0.40;;;-0.60;99.90;;;;;;5115808;28;20439;-77
2021/12/10 07:02:10;;;;;;;0.30;0.30;;;-0.60;99.90;;;;;;5115433;28;20451;-77
2021/12/10 07:04:40;;;;;;;0.30;0.30;;;-0.60;99.90;;;;;;5115602;28;20447;-77
2021/12/10 07:07:08;;;;;;;0.30;0.30;;;-0.60;99.90;;;;;;5115775;27;20446;-77
2021/12/10 07:09:35;;;;;;;0.30;0.30;;;-0.50;99.90;;;;;;5115221;27;20468;-77
2021/12/10 07:12:05;;;;;;;0.30;0.30;;;-0.60;99.90;;;;;;5115626;28;20458;-77
2021/12/10 07:14:32;;;;;;;0.30;0.30;;;-0.60;99.90;;;;;;5115110;28;20425;-77
2021/12/10 07:16:59;;;;;;;0.50;0.50;;;-0.60;99.90;;;;;;5115089;28;20424;-77
2021/12/10 07:19:28;;;;;;;0.30;0.27;;;-0.60;99.90;;;;;;5115320;28;20426;-77
2021/12/10 07:21:55;;;;;;;0.30;0.30;;;-0.60;99.90;;;;;;5114862;28;20527;-77
2021/12/10 07:24:21;;;;;;;0.30;0.30;;;-0.60;99.90;;;;;;5115243;28;20793;-77
2021/12/10 07:26:49;;;;;;;0.30;0.30;;;-0.60;99.90;;;;;;5114991;28;20457;-77
2021/12/10 07:29:18;;;;;;;0.30;0.30;;;-0.60;99.90;;;;;;5115145;27;20482;-78
2021/12/10 07:31:46;;;;;;;0.30;0.30;;;-0.60;99.90;;;;;;5114983;28;20458;-77
2021/12/10 07:34:13;;;;;;;0.30;0.30;;;-0.40;99.90;;;;;;5115009;28;20484;-77
2021/12/10 07:36:40;;;;;;;0.30;0.30;;;-0.40;99.90;;;;;;5114918;28;20406;-77
2021/12/10 07:39:08;;;;;;;0.40;0.30;;;-0.40;99.90;;;;;;5114900;28;20453;-77
2021/12/10 07:41:35;;;;;;;0.30;0.30;;;-0.40;99.90;;;;;;5114783;28;20448;-77
2021/12/10 07:44:02;;;;;;;0.50;0.47;;;-0.30;99.90;;;;;;5114830;28;20456;-77
2021/12/10 07:46:32;;;;;;;0.30;0.30;;;-0.30;99.90;;;;;;5114707;28;20478;-77
2021/12/10 07:48:59;;;;;;;0.30;0.30;;;-0.20;99.90;;;;;;5114720;28;20500;-77
2021/12/10 07:51:29;;;;;;;0.30;0.30;;;-0.10;99.90;;;;;;5114606;28;20441;-77
2021/12/10 07:53:59;;;;;;;0.40;0.40;;;-0.10;99.90;;;;;;5114408;28;20397;-77
2021/12/10 07:56:27;;;;;;;1.80;0.40;;;-0.10;99.90;;;;;;5114570;28;20426;-77
2021/12/10 07:58:55;;;;;;;0.30;0.30;;;0.00;99.90;;;;;;5114619;28;20431;-76
2021/12/10 08:01:25;;;;;;;0.30;0.30;;;0.00;99.90;;;;;;5114424;28;20437;-76
2021/12/10 08:03:54;;;;;;;3.20;0.60;;;0.10;99.90;;;;;;5114510;28;20435;-76
2021/12/10 08:06:22;;;;;;;0.30;0.30;;;0.10;99.90;;;;;;5114628;28;20436;-76
2021/12/10 08:08:50;;;;;;;0.30;0.30;;;0.20;99.90;;;;;;5113939;27;20968;-77
2021/12/10 08:11:18;;;;;;;0.30;0.30;;;0.20;99.90;;;;;;5114317;28;20477;-76
2021/12/10 08:13:45;;;;;;;0.30;0.20;;;0.30;99.90;;;;;;5114461;28;20408;-76
2021/12/10 08:16:12;;;;;;;0.30;0.30;;;0.30;99.90;;;;;;5114632;28;20402;-77
2021/12/10 08:18:38;;;;;;;0.30;0.30;;;0.30;99.90;;;;;;5114311;27;20491;-76
2021/12/10 08:21:07;;;;;;;0.30;0.30;;;0.30;99.90;;;;;;5114881;28;20486;-77
2021/12/10 08:23:34;;;;;;;0.30;0.20;;;0.30;99.90;;;;;;5114248;28;20440;-77
2021/12/10 08:26:01;;;;;;;0.30;0.30;;;0.50;99.90;;;;;;5114343;28;20431;-77
2021/12/10 08:28:28;;;;;;;0.30;0.30;;;0.60;99.90;;;;;;5114045;28;20459;-76
2021/12/10 08:30:57;;;;;;;0.30;0.30;;;0.80;99.90;;;;;;5113792;28;21012;-76
2021/12/10 08:33:24;;;;;;;0.30;0.30;;;0.90;99.90;;;;;;5114127;28;20799;-76
2021/12/10 08:35:55;;;;;;;0.47;0.47;;;1.00;99.90;;;;;;5114194;28;20447;-77
2021/12/10 08:38:23;;;;;;;0.70;0.70;;;1.10;99.90;;;;;;5114220;28;20427;-76
2021/12/10 08:40:55;;;;;;;0.30;0.30;;;1.20;99.90;;;;;;5113577;28;20450;-76
2021/12/10 08:43:22;;;;;;;0.30;0.30;;;1.30;99.90;;;;;;5113952;28;20521;-76
2021/12/10 08:45:52;;;;;;;0.40;0.30;;;1.30;99.90;;;;;;5113896;28;20553;-76
2021/12/10 08:48:19;;;;;;;0.30;0.30;;;1.30;99.90;;;;;;5113801;28;20475;-76
2021/12/10 08:50:46;;;;;;;0.30;0.20;;;1.20;99.90;;;;;;5113451;28;21005;-76
2021/12/10 08:53:14;;;;;;;0.30;0.30;;;1.20;99.90;;;;;;5113805;28;20447;-76
2021/12/10 08:55:45;;;;;;;0.30;0.30;;;1.10;99.90;;;;;;5113468;28;20447;-76
2021/12/10 08:58:12;;;;;;;0.30;0.30;;;1.10;99.90;;;;;;5113814;28;20438;-76
2021/12/10 09:00:41;;;;;;;0.30;0.30;;;1.10;99.90;;;;;;5113748;28;20478;-76
2021/12/10 09:03:08;;;;;;;0.30;0.30;;;1.10;99.90;;;;;;5113757;28;20442;-76
2021/12/10 09:05:36;;;;;;;0.40;0.40;;;1.10;99.90;;;;;;5113392;28;20938;-76
2021/12/10 09:08:03;;;;;;;0.30;0.30;;;1.20;99.90;;;;;;5113543;28;20486;-77
2021/12/10 09:10:34;;;;;;;0.30;0.30;;;1.20;99.90;;;;;;5113264;28;20482;-76
2021/12/10 09:13:09;;;;;;;0.30;0.30;;;1.30;99.90;;;;;;5115449;28;20447;-76
2021/12/10 09:15:36;;;;;;;0.30;0.30;;;1.30;99.90;;;;;;5117813;28;20434;-76
2021/12/10 09:18:03;;;;;;;0.30;0.20;;;1.40;99.90;;;;;;5117725;28;20447;-76
2021/12/10 09:20:39;;;;;;;0.30;0.30;;;1.40;99.90;;;;;;5117671;28;20467;-76
2021/12/10 09:23:08;;;;;;;0.30;0.30;;;1.40;99.90;;;;;;5117314;28;20445;-77
2021/12/10 09:25:37;;;;;;;0.30;0.30;;;1.40;99.90;;;;;;5117608;28;20431;-76
2021/12/10 09:28:06;;;;;;;0.70;0.70;;;1.40;99.90;;;;;;5117496;27;20478;-76
2021/12/10 09:30:34;;;;;;;0.30;0.20;;;1.40;99.90;;;;;;5117169;28;20463;-76
2021/12/10 09:33:01;;;;;;;0.33;0.30;;;1.50;99.90;;;;;;5117465;28;20434;-76
2021/12/10 09:35:33;;;;;;;0.40;0.40;;;1.60;99.90;;;;;;5117359;28;20447;-76
2021/12/10 09:38:00;;;;;;;0.50;0.50;;;1.60;99.90;;;;;;5117465;28;20761;-76
2021/12/10 09:40:31;;;;;;;0.30;0.30;;;1.70;99.90;;;;;;5117271;28;20467;-76
2021/12/10 09:42:59;;;;;;;0.60;0.60;;;1.70;99.90;;;;;;5117494;28;20525;-76
2021/12/10 09:45:31;;;;;;;0.30;0.30;;;1.80;99.90;;;;;;5117254;28;20408;-76
2021/12/10 09:48:00;;;;;;;0.30;0.30;;;1.90;99.90;;;;;;5117116;28;20467;-76
2021/12/10 09:50:31;;;;;;;0.30;0.20;;;1.90;99.90;;;;;;5117102;28;20447;-76
2021/12/10 09:52:59;;;;;;;0.50;0.50;;;1.90;99.90;;;;;;5117035;28;20435;-77
2021/12/10 09:55:28;;;;;;;0.30;0.30;;;2.00;99.90;;;;;;5117054;28;20510;-76
2021/12/10 09:57:56;;;;;;;0.30;0.30;;;2.00;99.90;;;;;;5116789;28;20477;-76
2021/12/10 10:00:30;;;;;;;0.30;0.30;;;2.00;99.90;;;;;;5116862;27;20475;-76
2021/12/10 10:02:59;;;;;;;0.30;0.20;;;1.90;99.90;;;;;;5117203;28;20427;-76
2021/12/10 10:05:27;;;;;;;0.30;0.30;;;2.00;99.90;;;;;;5116529;28;20910;-76
2021/12/10 10:07:55;;;;;;;0.30;0.20;;;2.00;99.90;;;;;;5116458;28;20467;-76
2021/12/10 10:10:25;;;;;;;0.30;0.30;;;2.00;99.90;;;;;;5116404;28;20471;-76
2021/12/10 10:12:56;;;;;;;0.30;0.30;;;2.00;99.90;;;;;;5116745;28;20438;-76
2021/12/10 10:15:28;;;;;;;0.30;0.20;;;2.10;99.90;;;;;;5116691;28;20496;-76
2021/12/10 10:17:57;;;;;;;0.30;0.30;;;2.10;99.90;;;;;;5116595;28;20455;-76
2021/12/10 10:20:26;;;;;;;0.30;0.20;;;2.10;99.90;;;;;;5116467;28;20478;-76
2021/12/10 10:22:53;;;;;;;0.30;0.30;;;2.10;99.90;;;;;;5116547;28;20411;-76
2021/12/10 10:25:24;;;;;;;0.30;0.30;;;2.20;99.90;;;;;;5115082;28;20439;-76
2021/12/10 10:27:51;;;;;;;0.30;0.23;;;2.20;99.90;;;;;;5116243;28;20992;-76
2021/12/10 10:30:25;;;;;;;0.60;0.60;;;2.30;99.90;;;;;;5116386;28;20459;-75
2021/12/10 10:32:52;;;;;;;0.30;0.30;;;2.30;99.90;;;;;;5116551;28;20440;-76
2021/12/10 10:35:26;;;;;;;0.30;0.30;;;2.30;99.90;;;;;;5115890;28;20439;-76
2021/12/10 10:37:54;;;;;;;0.30;0.30;;;2.30;99.90;;;;;;5116186;28;20428;-86
2021/12/10 10:40:26;;;;;;;0.30;0.30;;;2.40;99.90;;;;;;5116383;28;20835;-86
2021/12/10 10:42:53;;;;;;;0.30;0.30;;;2.40;99.90;;;;;;5116223;28;20910;-86
2021/12/10 10:45:24;;;;;;;0.80;0.33;;;2.40;99.90;;;;;;5116472;27;20436;-86
2021/12/10 10:47:51;;;;;;;0.30;0.20;;;2.40;99.90;;;;;;5116470;28;20467;-86
2021/12/10 10:50:23;;;;;;;0.40;0.40;;;2.50;99.90;;;;;;5116030;28;20493;-86
2021/12/10 10:52:53;;;;;;;0.30;0.20;;;2.40;99.90;;;;;;5115750;28;20910;-86
2021/12/10 10:55:25;;;;;;;0.30;0.20;;;2.40;99.90;;;;;;5121508;27;20446;-85
2021/12/10 10:57:57;;;;;;;0.30;0.30;;;2.50;99.90;;;;;;5116180;28;20424;-85
2021/12/10 11:00:32;;;;;;;0.30;0.30;;;2.50;99.90;;;;;;5116244;28;20463;-86
2021/12/10 11:03:04;;;;;;;0.30;0.30;;;2.50;99.90;;;;;;5115885;28;20422;-85
2021/12/10 11:05:33;;;;;;;0.47;0.47;;;2.60;99.90;;;;;;5115848;28;20423;-85
2021/12/10 11:08:06;;;;;;;0.53;0.53;;;2.60;99.90;;;;;;5115818;28;20463;-75
2021/12/10 11:10:35;;;;;;;0.30;0.20;;;2.50;99.90;;;;;;5115074;28;20486;-75
2021/12/10 11:13:14;;;;;;;0.30;0.30;;;2.60;99.90;;;;;;5115172;28;20450;-75
2021/12/10 11:15:59;;;;;;;0.30;0.20;;;2.60;99.90;;;;;;5115503;28;20449;-75
2021/12/10 11:18:26;;;;;;;0.30;0.30;;;2.60;99.90;;;;;;5115344;28;20906;-75
2021/12/10 11:20:55;;;;;;;0.30;0.20;;;2.60;99.90;;;;;;5115322;28;20536;-75
2021/12/10 11:23:25;;;;;;;0.30;0.20;;;2.60;99.90;;;;;;5115794;28;20427;-75
2021/12/10 11:25:55;;;;;;;0.30;0.30;;;2.60;99.90;;;;;;5115082;27;20431;-75
2021/12/10 11:28:26;;;;;;;0.30;0.30;;;2.60;99.90;;;;;;5115006;28;20832;-74
2021/12/10 11:31:02;;;;;;;0.30;0.20;;;2.40;99.90;;;;;;5115070;28;20470;-74
2021/12/10 11:33:31;;;;;;;0.30;0.30;;;2.30;99.90;;;;;;5114823;28;20438;-74
2021/12/10 11:36:06;;;;;;;0.40;0.40;;;2.30;99.90;;;;;;5114291;27;20445;-74
2021/12/10 11:38:34;;;;;;;0.30;0.20;;;2.20;99.90;;;;;;5114806;28;20753;-74
2021/12/10 11:41:04;;;;;;;0.30;0.30;;;2.20;99.90;;;;;;5114575;28;20458;-74
2021/12/10 11:43:55;;;;;;;0.30;0.20;;;2.10;99.90;;;;;;5114881;28;20883;-75
2021/12/10 11:46:43;;;;;;;0.30;0.20;;;2.00;99.90;;;;;;5114882;28;20443;-75
2021/12/10 11:49:14;;;;;;;0.30;0.20;;;2.10;99.90;;;;;;5114754;28;20549;-75
2021/12/10 11:51:44;;;;;;;0.30;0.30;;;2.00;99.90;;;;;;5114743;28;20471;-75
2021/12/10 11:54:27;;;;;;;0.30;0.20;;;1.90;99.90;;;;;;5114650;28;20435;-75
2021/12/10 11:56:57;;;;;;;0.30;0.30;;;1.90;99.90;;;;;;5114868;28;20426;-75
2021/12/10 11:59:28;;;;;;;0.30;0.30;;;1.90;99.90;;;;;;5115400;28;20427;-75
2021/12/10 12:01:58;;;;;;;0.30;0.30;;;1.90;99.90;;;;;;5114249;28;20474;-76
2021/12/10 12:04:29;;;;;;;0.30;0.30;;;1.80;99.90;;;;;;5114553;28;20438;-75
2021/12/10 12:07:19;;;;;;;0.43;0.43;;;1.80;99.90;;;;;;5114513;28;20436;-75
2021/12/10 12:09:51;;;;;;;0.30;0.20;;;1.80;99.90;;;;;;5113834;28;20494;-75
2021/12/10 12:12:22;;;;;;;0.30;0.20;;;1.80;99.90;;;;;;5114373;28;20438;-75
2021/12/10 12:14:53;;;;;;;0.30;0.30;;;1.90;99.90;;;;;;5114193;28;20424;-75
2021/12/10 12:17:32;;;;;;;0.30;0.30;;;2.00;99.90;;;;;;5114215;28;20458;-75
2021/12/10 12:19:59;;;;;;;0.30;0.30;;;2.00;99.90;;;;;;5114132;28;20443;-75
2021/12/10 12:25:26;;;;;;;0.30;0.20;;;2.10;99.90;;;;;;5114188;28;20407;-75
2021/12/10 12:28:08;;;;;;;0.30;0.20;;;2.10;99.90;;;;;;5114193;28;20431;-75
2021/12/10 12:30:50;;;;;;;0.30;0.30;;;2.10;99.90;;;;;;5114299;28;20470;-75
2021/12/10 12:33:18;;;;;;;0.30;0.30;;;2.10;99.90;;;;;;5114091;28;20442;-75
2021/12/10 12:35:45;;;;;;;0.30;0.30;;;2.10;99.90;;;;;;5114023;28;20447;-75
2021/12/10 12:38:17;;;;;;;0.30;0.30;;;2.10;99.90;;;;;;5113993;28;20435;-75
2021/12/10 12:40:47;;;;;;;0.30;0.30;;;2.20;99.90;;;;;;5113912;28;20466;-75
2021/12/10 12:43:14;;;;;;;0.30;0.30;;;2.10;99.90;;;;;;5114204;28;20447;-75
2021/12/10 12:45:43;;;;;;;0.30;0.30;;;2.10;99.90;;;;;;5113579;28;20807;-75
2021/12/10 12:48:13;;;;;;;0.30;0.30;;;2.10;99.90;;;;;;5112701;28;20930;-75
2021/12/10 12:50:42;;;;;;;0.30;0.30;;;2.00;99.90;;;;;;5113785;28;20466;-75
2021/12/10 12:53:12;;;;;;;0.30;0.30;;;2.00;99.90;;;;;;5113826;28;20462;-75
2021/12/10 12:55:51;;;;;;;0.30;0.30;;;1.90;99.90;;;;;;5113559;28;20438;-75
2021/12/10 12:58:24;;;;;;;0.30;0.20;;;1.90;99.90;;;;;;5114540;28;20842;-75
2021/12/10 13:00:57;;;;;;;0.30;0.20;;;1.80;99.90;;;;;;5113475;28;20467;-75
2021/12/10 13:03:31;;;;;;;0.30;0.30;;;1.80;99.90;;;;;;5113917;28;20443;-75
2021/12/10 13:06:06;;;;;;;0.30;0.30;;;1.70;99.90;;;;;;5113450;28;20936;-75
2021/12/10 13:08:36;;;;;;;0.30;0.30;;;1.80;99.90;;;;;;5113447;28;20466;-77
2021/12/10 13:11:10;;;;;;;0.30;0.30;;;1.80;99.90;;;;;;5113656;28;20489;-75
2021/12/10 13:13:42;;;;;;;0.30;0.20;;;1.80;99.90;;;;;;5113710;28;20433;-76
2021/12/10 13:16:11;;;;;;;0.30;0.30;;;1.90;99.90;;;;;;5113641;28;20439;-76